createdAt,value
2022-10-25T00:04:05.344Z,13.9
2022-10-25T00:14:07.173Z,13.9
2022-10-25T00:24:09.411Z,14
2022-10-25T00:34:11.504Z,14
2022-10-25T00:44:13.446Z,14
2022-10-25T00:54:15.615Z,14.1
2022-10-25T01:04:18.014Z,14.1
2022-10-25T01:14:19.920Z,14.1
2022-10-25T01:24:22.354Z,14
2022-10-25T01:34:24.171Z,13.9
2022-10-25T01:44:26.753Z,13.9
2022-10-25T01:54:28.817Z,14
2022-10-25T02:04:31.437Z,13.9
2022-10-25T02:14:33.207Z,13.9
2022-10-25T02:24:34.962Z,13.9
2022-10-25T02:34:37.067Z,13.9
2022-10-25T03:04:43.952Z,13.8
2022-10-25T03:24:47.984Z,13.8
2022-10-25T03:44:52.463Z,13.9
2022-10-25T03:54:54.295Z,13.9
2022-10-25T04:04:56.529Z,13.6
2022-10-25T04:25:00.534Z,13.6
2022-10-25T04:45:04.525Z,13.5
2022-10-25T04:55:06.187Z,13.5
2022-10-25T05:05:08.041Z,13.6
2022-10-25T05:15:10.151Z,13.6
2022-10-25T05:25:12.626Z,13.7
2022-10-25T05:45:16.642Z,13.7
2022-10-25T05:55:19.184Z,13.8
2022-10-25T06:15:23.373Z,13.7
2022-10-25T06:25:25.382Z,13.7
2022-10-25T06:35:27.454Z,13.7
2022-10-25T06:45:30.067Z,13.7
2022-10-25T06:55:32.139Z,13.7
2022-10-25T07:15:37.542Z,13.6
2022-10-25T07:35:46.638Z,13.9
2022-10-25T07:55:45.445Z,14
2022-10-25T08:15:49.652Z,14.3
2022-10-25T08:35:53.520Z,14.2
2022-10-25T08:45:55.292Z,14.7
2022-10-25T08:56:11.900Z,14.8
2022-10-25T09:06:00.074Z,14.6
2022-10-25T09:16:01.864Z,14.6
2022-10-25T09:26:03.580Z,14.6
2022-10-25T09:36:05.985Z,14.7
2022-10-25T09:46:08.037Z,14.8
2022-10-25T09:56:09.993Z,15
2022-10-25T10:16:14.495Z,15.1
2022-10-25T10:26:16.269Z,15.2
2022-10-25T10:26:38.213Z,15.2
2022-10-25T10:36:25.682Z,15.2
2022-10-25T10:46:28.196Z,15.6
2022-10-25T10:56:30.392Z,15.5
2022-10-25T11:16:35.262Z,15.7
2022-10-25T11:26:37.283Z,15.6
2022-10-25T11:36:39.631Z,15.7
2022-10-25T11:46:42.131Z,16.1
2022-10-25T11:56:44.325Z,16.2
2022-10-25T12:06:46.935Z,16.3
2022-10-25T12:16:49.294Z,16.4
2022-10-25T12:26:51.776Z,16.2
2022-10-25T12:36:53.593Z,16.1
2022-10-25T12:46:55.438Z,16.2
2022-10-25T12:56:57.963Z,16
2022-10-25T13:06:59.684Z,16.2
2022-10-25T13:17:02.057Z,16.1
2022-10-25T13:27:04.571Z,16.4
2022-10-25T13:37:06.466Z,16.6
2022-10-25T13:47:08.354Z,16.5
2022-10-25T13:57:10.721Z,16.8
2022-10-25T14:07:12.455Z,16.7
2022-10-25T14:17:14.195Z,16.4
2022-10-25T14:27:15.966Z,16.3
2022-10-25T14:37:17.810Z,16.2
2022-10-25T14:47:20.145Z,15.8
2022-10-25T14:57:21.956Z,15.8
2022-10-25T15:07:24.534Z,16
2022-10-25T15:17:26.568Z,15.8
2022-10-25T15:27:28.677Z,15.7
2022-10-25T15:37:30.591Z,15.6
2022-10-25T17:07:50.528Z,12.8
2022-10-25T18:58:13.099Z,10.4
2022-10-25T19:08:14.846Z,10.3
2022-10-25T19:38:21.633Z,9.7
2022-10-25T20:08:27.998Z,9.5
2022-10-25T21:08:41.139Z,8.8
2022-10-25T21:18:43.511Z,8.7
2022-10-25T21:38:47.610Z,8.5
2022-10-25T21:58:52.789Z,8.5
2022-10-25T22:08:54.515Z,8.5
2022-10-25T22:18:56.283Z,8.6
2022-10-25T22:28:58.346Z,8.4
2022-10-25T23:29:12.705Z,8.3
2022-10-25T23:39:14.944Z,8.7
2022-10-25T23:49:17.273Z,8.4
2022-10-25T23:59:19.237Z,8.5
